Time,TemperatureF,DewpointF,PressureIn,WindDirection,WindDirectionDegrees,WindSpeedMPH,WindSpeedGustMPH,Humidity,HourlyPrecipIn,Conditions,Clouds,dailyrainin,SoftwareType,DateUTC
2013-08-21 00:22:00,56.0,41.0,-100.00,North,-999,-999.0,-999.0,56,-99.99,,,-99.99,,2013-08-21 06:22:00,
2013-08-21 00:32:00,56.0,41.0,-100.00,North,-999,-999.0,-999.0,56,-99.99,,,-99.99,,2013-08-21 06:32:00,
2013-08-21 01:21:00,56.0,42.0,-100.00,North,-999,-999.0,-999.0,59,-99.99,,,-99.99,,2013-08-21 07:21:00,
2013-08-21 01:32:00,56.0,42.0,-100.00,North,-999,-999.0,-999.0,59,-99.99,,,-99.99,,2013-08-21 07:32:00,
2013-08-21 02:22:00,56.0,43.0,-100.00,North,-999,-999.0,-999.0,61,-99.99,,,-99.99,,2013-08-21 08:22:00,
2013-08-21 02:31:00,56.0,43.0,-100.00,North,-999,-999.0,-999.0,61,-99.99,,,-99.99,,2013-08-21 08:31:00,
2013-08-21 03:22:00,55.0,43.0,-100.00,North,-999,-999.0,-999.0,63,-99.99,,,-99.99,,2013-08-21 09:22:00,
2013-08-21 03:33:00,55.0,43.0,-100.00,North,-999,-999.0,-999.0,63,-99.99,,,-99.99,,2013-08-21 09:33:00,
2013-08-21 04:23:00,56.0,41.0,-100.00,North,-999,-999.0,-999.0,56,-99.99,,,-99.99,,2013-08-21 10:23:00,
2013-08-21 04:33:00,56.0,41.0,-100.00,North,-999,-999.0,-999.0,56,-99.99,,,-99.99,,2013-08-21 10:33:00,
2013-08-21 05:22:00,55.0,42.0,-100.00,North,-999,-999.0,-999.0,60,-99.99,,,-99.99,,2013-08-21 11:22:00,
2013-08-21 05:33:00,55.0,42.0,-100.00,North,-999,-999.0,-999.0,60,-99.99,,,-99.99,,2013-08-21 11:33:00,
2013-08-21 06:22:00,55.0,40.0,-100.00,North,-999,-999.0,-999.0,58,-99.99,,,-99.99,,2013-08-21 12:22:00,
2013-08-21 06:32:00,55.0,40.0,-100.00,North,-999,-999.0,-999.0,58,-99.99,,,-99.99,,2013-08-21 12:32:00,
2013-08-21 06:52:00,56.0,39.0,-100.00,North,-999,-999.0,-999.0,53,-99.99,,,-99.99,,2013-08-21 12:52:00,
2013-08-21 07:21:00,56.0,40.0,-100.00,North,-999,-999.0,-999.0,54,-99.99,,,-99.99,,2013-08-21 13:21:00,
2013-08-21 07:32:00,56.0,40.0,-100.00,North,-999,-999.0,-999.0,54,-99.99,,,-99.99,,2013-08-21 13:32:00,
2013-08-21 08:21:00,56.0,40.0,-100.00,North,-999,-999.0,-999.0,53,-99.99,,,-99.99,,2013-08-21 14:21:00,
2013-08-21 08:32:00,56.0,40.0,-100.00,North,-999,-999.0,-999.0,53,-99.99,,,-99.99,,2013-08-21 14:32:00,
2013-08-21 09:22:00,57.0,41.0,-100.00,North,-999,-999.0,-999.0,53,-99.99,,,-99.99,,2013-08-21 15:22:00,
2013-08-21 09:34:00,57.0,41.0,-100.00,North,-999,-999.0,-999.0,53,-99.99,,,-99.99,,2013-08-21 15:34:00,
2013-08-21 10:24:00,59.0,41.0,-100.00,North,-999,-999.0,-999.0,51,-99.99,,,-99.99,,2013-08-21 16:24:00,
2013-08-21 10:34:00,59.0,41.0,-100.00,North,-999,-999.0,-999.0,51,-99.99,,,-99.99,,2013-08-21 16:34:00,
2013-08-21 11:23:00,59.0,45.0,-100.00,North,-999,-999.0,-999.0,58,-99.99,,,-99.99,,2013-08-21 17:23:00,
2013-08-21 11:34:00,59.0,45.0,-100.00,North,-999,-999.0,-999.0,58,-99.99,,,-99.99,,2013-08-21 17:34:00,
2013-08-21 11:53:00,60.0,49.0,-100.00,North,-999,-999.0,-999.0,66,-99.99,,,-99.99,,2013-08-21 17:53:00,
2013-08-21 12:22:00,61.0,47.0,-100.00,North,-999,-999.0,-999.0,60,-99.99,,,-99.99,,2013-08-21 18:22:00,
2013-08-21 12:32:00,61.0,47.0,-100.00,North,-999,-999.0,-999.0,60,-99.99,,,-99.99,,2013-08-21 18:32:00,
2013-08-21 13:22:00,65.0,47.0,-100.00,North,-999,-999.0,-999.0,53,-99.99,,,-99.99,,2013-08-21 19:22:00,
2013-08-21 13:30:00,66.0,44.0,-100.00,North,-999,-999.0,-999.0,45,-99.99,,,-99.99,,2013-08-21 19:30:00,
2013-08-21 13:32:00,65.0,47.0,-100.00,North,-999,-999.0,-999.0,53,-99.99,,,-99.99,,2013-08-21 19:32:00,
2013-08-21 13:52:00,65.0,47.0,-100.00,North,-999,-999.0,-999.0,52,-99.99,,,-99.99,,2013-08-21 19:52:00,
2013-08-21 14:02:00,65.0,47.0,-100.00,North,-999,-999.0,-999.0,52,-99.99,,,-99.99,,2013-08-21 20:02:00,
2013-08-21 14:22:00,66.0,44.0,-100.00,North,-999,-999.0,-999.0,45,-99.99,,,-99.99,,2013-08-21 20:22:00,
2013-08-21 15:21:00,66.0,43.0,-100.00,North,-999,-999.0,-999.0,43,-99.99,,,-99.99,,2013-08-21 21:21:00,
2013-08-21 15:34:00,66.0,43.0,-100.00,North,-999,-999.0,-999.0,43,-99.99,,,-99.99,,2013-08-21 21:34:00,
2013-08-21 16:24:00,65.0,45.0,-100.00,North,-999,-999.0,-999.0,47,-99.99,,,-99.99,,2013-08-21 22:24:00,
2013-08-21 16:34:00,65.0,45.0,-100.00,North,-999,-999.0,-999.0,47,-99.99,,,-99.99,,2013-08-21 22:34:00,
2013-08-21 17:22:00,67.0,42.0,-100.00,North,-999,-999.0,-999.0,39,-99.99,,,-99.99,,2013-08-21 23:22:00,
2013-08-21 17:33:00,67.0,42.0,-100.00,North,-999,-999.0,-999.0,39,-99.99,,,-99.99,,2013-08-21 23:33:00,
2013-08-21 18:21:00,66.0,42.0,-100.00,North,-999,-999.0,-999.0,40,-99.99,,,-99.99,,2013-08-22 00:21:00,
2013-08-21 18:30:00,65.0,44.0,-100.00,North,-999,-999.0,-999.0,45,-99.99,,,-99.99,,2013-08-22 00:30:00,
2013-08-21 18:32:00,66.0,42.0,-100.00,North,-999,-999.0,-999.0,40,-99.99,,,-99.99,,2013-08-22 00:32:00,
2013-08-21 19:11:00,65.0,44.0,-100.00,North,-999,-999.0,-999.0,45,-99.99,,,-99.99,,2013-08-22 01:11:00,
2013-08-21 19:22:00,65.0,44.0,-100.00,North,-999,-999.0,-999.0,45,-99.99,,,-99.99,,2013-08-22 01:22:00,
2013-08-21 20:22:00,63.0,44.0,-100.00,North,-999,-999.0,-999.0,48,-99.99,,,-99.99,,2013-08-22 02:22:00,
2013-08-21 20:32:00,63.0,44.0,-100.00,North,-999,-999.0,-999.0,48,-99.99,,,-99.99,,2013-08-22 02:32:00,
2013-08-21 20:43:00,63.0,44.0,-100.00,North,-999,-999.0,-999.0,48,-99.99,,,-99.99,,2013-08-22 02:43:00,
2013-08-21 21:22:00,60.0,44.0,-100.00,North,-999,-999.0,-999.0,53,-99.99,,,-99.99,,2013-08-22 03:22:00,
2013-08-21 21:34:00,60.0,44.0,-100.00,North,-999,-999.0,-999.0,53,-99.99,,,-99.99,,2013-08-22 03:34:00,
2013-08-21 22:23:00,60.0,43.0,-100.00,North,-999,-999.0,-999.0,53,-99.99,,,-99.99,,2013-08-22 04:23:00,
2013-08-21 22:34:00,60.0,43.0,-100.00,North,-999,-999.0,-999.0,53,-99.99,,,-99.99,,2013-08-22 04:34:00,
2013-08-21 23:22:00,60.0,41.0,-100.00,North,-999,-999.0,-999.0,49,-99.99,,,-99.99,,2013-08-22 05:22:00,
2013-08-21 23:33:00,60.0,41.0,-100.00,North,-999,-999.0,-999.0,49,-99.99,,,-99.99,,2013-08-22 05:33:00,